sensor_id;sensor_type;location;lat;lon;timestamp;pressure;altitude;pressure_sealevel;temperature;humidity
58757;BME280;44527;47.460;19.016;2023-05-25T00:02:08;100432.25;;;16.61;100.00
58757;BME280;44527;47.460;19.016;2023-05-25T00:05:11;100430.44;;;16.52;100.00
58757;BME280;44527;47.460;19.016;2023-05-25T00:08:14;100436.72;;;16.61;100.00
58757;BME280;44527;47.460;19.016;2023-05-25T00:11:16;100429.72;;;16.40;100.00
58757;BME280;44527;47.460;19.016;2023-05-25T00:14:20;100434.72;;;16.34;100.00
58757;BME280;44527;47.460;19.016;2023-05-25T00:17:22;100434.59;;;16.25;100.00
58757;BME280;44527;47.460;19.016;2023-05-25T00:20:25;100436.87;;;16.09;100.00
58757;BME280;44527;47.460;19.016;2023-05-25T00:23:28;100443.56;;;16.03;100.00
58757;BME280;44527;47.460;19.016;2023-05-25T00:26:30;100438.59;;;16.10;100.00
58757;BME280;44527;47.460;19.016;2023-05-25T00:29:33;100432.84;;;16.05;100.00
58757;BME280;44527;47.460;19.016;2023-05-25T00:32:36;100433.59;;;16.17;100.00
58757;BME280;44527;47.460;19.016;2023-05-25T00:35:39;100433.41;;;16.08;100.00
58757;BME280;44527;47.460;19.016;2023-05-25T00:38:43;100439.69;;;16.07;100.00
58757;BME280;44527;47.460;19.016;2023-05-25T00:41:47;100435.19;;;15.98;100.00
58757;BME280;44527;47.460;19.016;2023-05-25T00:44:49;100443.25;;;15.97;100.00
58757;BME280;44527;47.460;19.016;2023-05-25T00:47:52;100449.25;;;15.99;100.00
58757;BME280;44527;47.460;19.016;2023-05-25T00:50:54;100449.03;;;16.12;100.00
58757;BME280;44527;47.460;19.016;2023-05-25T00:54:01;100452.09;;;16.07;100.00
58757;BME280;44527;47.460;19.016;2023-05-25T00:57:04;100446.91;;;16.05;100.00
58757;BME280;44527;47.460;19.016;2023-05-25T01:00:09;100450.41;;;16.16;100.00
58757;BME280;44527;47.460;19.016;2023-05-25T01:03:13;100447.94;;;16.24;100.00
58757;BME280;44527;47.460;19.016;2023-05-25T01:06:19;100448.38;;;16.29;100.00
58757;BME280;44527;47.460;19.016;2023-05-25T01:09:22;100455.53;;;16.38;100.00
58757;BME280;44527;47.460;19.016;2023-05-25T01:12:26;100458.41;;;16.25;100.00
58757;BME280;44527;47.460;19.016;2023-05-25T01:15:29;100456.16;;;16.21;100.00
58757;BME280;44527;47.460;19.016;2023-05-25T01:18:33;100461.63;;;16.29;100.00
58757;BME280;44527;47.460;19.016;2023-05-25T01:21:44;100461.94;;;16.45;100.00
58757;BME280;44527;47.460;19.016;2023-05-25T01:24:52;100465.22;;;16.28;100.00
58757;BME280;44527;47.460;19.016;2023-05-25T01:27:59;100453.06;;;16.16;100.00
58757;BME280;44527;47.460;19.016;2023-05-25T01:31:05;100464.56;;;16.36;100.00
58757;BME280;44527;47.460;19.016;2023-05-25T01:34:09;100459.00;;;16.39;100.00
58757;BME280;44527;47.460;19.016;2023-05-25T01:37:13;100463.47;;;16.38;100.00
58757;BME280;44527;47.460;19.016;2023-05-25T01:40:18;100474.44;;;16.24;100.00
58757;BME280;44527;47.460;19.016;2023-05-25T01:43:21;100480.06;;;16.09;100.00
58757;BME280;44527;47.460;19.016;2023-05-25T01:49:41;100476.25;;;16.23;100.00
58757;BME280;44527;47.460;19.016;2023-05-25T01:52:45;100476.34;;;16.12;100.00
58757;BME280;44527;47.460;19.016;2023-05-25T01:56:05;100468.00;;;16.17;100.00
58757;BME280;44527;47.460;19.016;2023-05-25T01:59:10;100483.31;;;16.13;100.00
58757;BME280;44527;47.460;19.016;2023-05-25T02:02:13;100472.84;;;16.12;100.00
58757;BME280;44527;47.460;19.016;2023-05-25T02:05:16;100474.84;;;16.19;100.00
58757;BME280;44527;47.460;19.016;2023-05-25T02:08:20;100471.88;;;16.13;100.00
58757;BME280;44527;47.460;19.016;2023-05-25T02:11:22;100480.50;;;16.05;100.00
58757;BME280;44527;47.460;19.016;2023-05-25T02:14:25;100480.31;;;15.97;100.00
58757;BME280;44527;47.460;19.016;2023-05-25T02:17:27;100483.50;;;15.91;100.00
58757;BME280;44527;47.460;19.016;2023-05-25T02:20:31;100475.44;;;15.92;100.00
58757;BME280;44527;47.460;19.016;2023-05-25T02:23:33;100477.87;;;15.84;100.00
58757;BME280;44527;47.460;19.016;2023-05-25T02:26:36;100476.25;;;15.93;100.00
58757;BME280;44527;47.460;19.016;2023-05-25T02:29:39;100483.63;;;15.89;100.00
58757;BME280;44527;47.460;19.016;2023-05-25T02:32:41;100479.50;;;15.75;100.00
58757;BME280;44527;47.460;19.016;2023-05-25T02:35:44;100483.66;;;15.68;100.00
58757;BME280;44527;47.460;19.016;2023-05-25T02:38:46;100491.69;;;15.67;100.00
58757;BME280;44527;47.460;19.016;2023-05-25T02:41:51;100489.91;;;15.46;100.00
58757;BME280;44527;47.460;19.016;2023-05-25T02:44:53;100478.41;;;15.36;100.00
58757;BME280;44527;47.460;19.016;2023-05-25T02:47:56;100486.78;;;15.20;100.00
58757;BME280;44527;47.460;19.016;2023-05-25T02:50:58;100486.06;;;15.18;100.00
58757;BME280;44527;47.460;19.016;2023-05-25T02:54:00;100485.81;;;15.00;100.00
58757;BME280;44527;47.460;19.016;2023-05-25T02:57:03;100485.34;;;14.84;100.00
58757;BME280;44527;47.460;19.016;2023-05-25T03:00:05;100488.34;;;14.90;100.00
58757;BME280;44527;47.460;19.016;2023-05-25T03:03:08;100495.00;;;14.85;100.00
58757;BME280;44527;47.460;19.016;2023-05-25T03:06:12;100498.31;;;14.87;100.00
58757;BME280;44527;47.460;19.016;2023-05-25T03:09:15;100495.81;;;14.85;100.00
58757;BME280;44527;47.460;19.016;2023-05-25T03:12:18;100507.69;;;14.91;100.00
58757;BME280;44527;47.460;19.016;2023-05-25T03:15:21;100501.19;;;14.95;100.00
58757;BME280;44527;47.460;19.016;2023-05-25T03:18:24;100506.62;;;15.14;100.00
58757;BME280;44527;47.460;19.016;2023-05-25T03:21:27;100509.84;;;15.18;100.00
58757;BME280;44527;47.460;19.016;2023-05-25T03:24:29;100507.13;;;15.08;100.00
58757;BME280;44527;47.460;19.016;2023-05-25T03:27:32;100506.28;;;15.19;100.00
58757;BME280;44527;47.460;19.016;2023-05-25T03:30:34;100514.81;;;15.11;100.00
58757;BME280;44527;47.460;19.016;2023-05-25T03:33:37;100509.84;;;15.18;100.00
58757;BME280;44527;47.460;19.016;2023-05-25T03:36:41;100517.03;;;15.27;100.00
58757;BME280;44527;47.460;19.016;2023-05-25T03:39:47;100512.66;;;15.37;100.00
58757;BME280;44527;47.460;19.016;2023-05-25T03:42:49;100516.50;;;15.33;100.00
58757;BME280;44527;47.460;19.016;2023-05-25T03:45:52;100510.53;;;15.31;100.00
58757;BME280;44527;47.460;19.016;2023-05-25T03:48:54;100509.44;;;15.55;100.00
58757;BME280;44527;47.460;19.016;2023-05-25T03:51:57;100516.13;;;15.70;100.00
58757;BME280;44527;47.460;19.016;2023-05-25T03:55:02;100518.81;;;16.01;100.00
58757;BME280;44527;47.460;19.016;2023-05-25T03:58:06;100520.41;;;16.13;100.00
58757;BME280;44527;47.460;19.016;2023-05-25T04:01:10;100527.84;;;15.98;100.00
58757;BME280;44527;47.460;19.016;2023-05-25T04:04:15;100532.37;;;16.17;100.00
58757;BME280;44527;47.460;19.016;2023-05-25T04:07:17;100535.53;;;16.32;100.00
58757;BME280;44527;47.460;19.016;2023-05-25T04:10:20;100541.28;;;16.47;100.00
58757;BME280;44527;47.460;19.016;2023-05-25T04:13:22;100540.50;;;16.66;100.00
58757;BME280;44527;47.460;19.016;2023-05-25T04:16:25;100539.63;;;16.55;100.00
58757;BME280;44527;47.460;19.016;2023-05-25T04:19:28;100545.13;;;16.73;100.00
58757;BME280;44527;47.460;19.016;2023-05-25T04:22:32;100549.69;;;17.02;100.00
58757;BME280;44527;47.460;19.016;2023-05-25T04:25:35;100548.28;;;17.17;99.68
58757;BME280;44527;47.460;19.016;2023-05-25T04:28:39;100553.47;;;17.48;97.70
58757;BME280;44527;47.460;19.016;2023-05-25T04:31:42;100550.22;;;17.44;97.75
58757;BME280;44527;47.460;19.016;2023-05-25T04:34:48;100557.50;;;17.33;97.96
58757;BME280;44527;47.460;19.016;2023-05-25T04:37:51;100555.28;;;17.57;97.14
58757;BME280;44527;47.460;19.016;2023-05-25T04:40:58;100563.06;;;17.59;97.05
58757;BME280;44527;47.460;19.016;2023-05-25T04:44:00;100554.28;;;17.78;95.33
58757;BME280;44527;47.460;19.016;2023-05-25T04:47:12;100548.63;;;18.10;93.40
58757;BME280;44527;47.460;19.016;2023-05-25T04:50:14;100559.44;;;19.27;87.87
58757;BME280;44527;47.460;19.016;2023-05-25T04:53:18;100553.22;;;21.66;74.55
58757;BME280;44527;47.460;19.016;2023-05-25T04:56:21;100556.16;;;23.45;65.33
58757;BME280;44527;47.460;19.016;2023-05-25T04:59:27;100561.91;;;24.84;59.85
58757;BME280;44527;47.460;19.016;2023-05-25T05:02:29;100563.03;;;26.03;55.03
58757;BME280;44527;47.460;19.016;2023-05-25T05:05:33;100566.34;;;26.81;52.30
58757;BME280;44527;47.460;19.016;2023-05-25T05:08:37;100574.97;;;27.32;50.68
58757;BME280;44527;47.460;19.016;2023-05-25T05:11:40;100565.91;;;28.57;47.22
58757;BME280;44527;47.460;19.016;2023-05-25T05:14:42;100573.81;;;28.97;45.70
58757;BME280;44527;47.460;19.016;2023-05-25T05:17:45;100586.59;;;29.22;45.09
58757;BME280;44527;47.460;19.016;2023-05-25T05:20:48;100586.28;;;28.98;46.00
58757;BME280;44527;47.460;19.016;2023-05-25T05:23:50;100585.00;;;29.14;45.18
58757;BME280;44527;47.460;19.016;2023-05-25T05:26:54;100589.69;;;29.25;44.82
58757;BME280;44527;47.460;19.016;2023-05-25T05:30:02;100590.66;;;29.69;43.72
58757;BME280;44527;47.460;19.016;2023-05-25T05:33:04;100587.25;;;30.73;41.43
58757;BME280;44527;47.460;19.016;2023-05-25T05:36:10;100590.38;;;30.39;41.99
58757;BME280;44527;47.460;19.016;2023-05-25T05:39:13;100590.91;;;31.69;38.93
58757;BME280;44527;47.460;19.016;2023-05-25T05:42:16;100591.41;;;32.01;38.40
58757;BME280;44527;47.460;19.016;2023-05-25T05:45:18;100588.31;;;32.33;37.84
58757;BME280;44527;47.460;19.016;2023-05-25T05:48:21;100585.69;;;31.55;38.76
58757;BME280;44527;47.460;19.016;2023-05-25T05:51:23;100588.53;;;31.61;38.35
58757;BME280;44527;47.460;19.016;2023-05-25T05:54:25;100587.84;;;31.23;39.12
58757;BME280;44527;47.460;19.016;2023-05-25T05:57:31;100592.34;;;31.29;39.07
58757;BME280;44527;47.460;19.016;2023-05-25T06:00:34;100595.03;;;32.42;36.89
58757;BME280;44527;47.460;19.016;2023-05-25T06:03:36;100591.84;;;32.33;37.23
58757;BME280;44527;47.460;19.016;2023-05-25T06:06:39;100606.16;;;32.81;36.38
58757;BME280;44527;47.460;19.016;2023-05-25T06:09:46;100600.19;;;31.07;38.67
58757;BME280;44527;47.460;19.016;2023-05-25T06:12:48;100602.63;;;29.17;42.89
58757;BME280;44527;47.460;19.016;2023-05-25T06:15:50;100604.31;;;29.18;44.11
58757;BME280;44527;47.460;19.016;2023-05-25T06:18:52;100608.75;;;28.47;45.74
58757;BME280;44527;47.460;19.016;2023-05-25T06:21:55;100600.91;;;29.86;42.49
58757;BME280;44527;47.460;19.016;2023-05-25T06:24:57;100597.09;;;30.55;41.31
58757;BME280;44527;47.460;19.016;2023-05-25T06:28:01;100604.16;;;29.94;41.97
58757;BME280;44527;47.460;19.016;2023-05-25T06:31:03;100604.31;;;29.18;44.16
58757;BME280;44527;47.460;19.016;2023-05-25T06:34:06;100600.06;;;28.18;47.37
58757;BME280;44527;47.460;19.016;2023-05-25T06:37:08;100595.91;;;27.36;49.03
58757;BME280;44527;47.460;19.016;2023-05-25T06:40:11;100587.41;;;28.06;47.81
58757;BME280;44527;47.460;19.016;2023-05-25T06:43:13;100593.97;;;29.08;44.40
58757;BME280;44527;47.460;19.016;2023-05-25T06:46:16;100602.72;;;30.54;42.23
58757;BME280;44527;47.460;19.016;2023-05-25T06:49:19;100598.12;;;30.36;42.18
58757;BME280;44527;47.460;19.016;2023-05-25T06:52:22;100605.31;;;28.78;45.56
58757;BME280;44527;47.460;19.016;2023-05-25T06:55:25;100596.84;;;30.20;42.57
58757;BME280;44527;47.460;19.016;2023-05-25T06:58:28;100600.56;;;31.65;39.37
58757;BME280;44527;47.460;19.016;2023-05-25T07:01:30;100605.34;;;31.09;40.16
58757;BME280;44527;47.460;19.016;2023-05-25T07:04:32;100599.41;;;28.95;44.53
58757;BME280;44527;47.460;19.016;2023-05-25T07:07:35;100608.31;;;28.37;46.98
58757;BME280;44527;47.460;19.016;2023-05-25T07:10:37;100616.06;;;28.85;45.33
58757;BME280;44527;47.460;19.016;2023-05-25T07:13:40;100615.16;;;29.11;44.73
58757;BME280;44527;47.460;19.016;2023-05-25T07:16:42;100616.87;;;31.76;39.86
58757;BME280;44527;47.460;19.016;2023-05-25T07:19:46;100619.31;;;30.20;42.37
58757;BME280;44527;47.460;19.016;2023-05-25T07:22:49;100616.66;;;29.32;43.78
58757;BME280;44527;47.460;19.016;2023-05-25T07:25:51;100618.81;;;28.78;45.56
58757;BME280;44527;47.460;19.016;2023-05-25T07:28:54;100619.84;;;29.22;43.38
58757;BME280;44527;47.460;19.016;2023-05-25T07:31:56;100618.94;;;27.65;47.75
58757;BME280;44527;47.460;19.016;2023-05-25T07:35:03;100610.63;;;27.34;48.29
58757;BME280;44527;47.460;19.016;2023-05-25T07:38:06;100611.53;;;28.79;46.16
58757;BME280;44527;47.460;19.016;2023-05-25T07:41:09;100617.47;;;29.39;45.05
58757;BME280;44527;47.460;19.016;2023-05-25T07:44:12;100619.91;;;29.16;45.43
58757;BME280;44527;47.460;19.016;2023-05-25T07:47:15;100617.84;;;30.18;42.95
58757;BME280;44527;47.460;19.016;2023-05-25T07:50:21;100626.31;;;29.85;43.60
58757;BME280;44527;47.460;19.016;2023-05-25T07:53:28;100624.06;;;30.99;41.40
58757;BME280;44527;47.460;19.016;2023-05-25T07:56:34;100621.88;;;31.19;40.19
58757;BME280;44527;47.460;19.016;2023-05-25T07:59:38;100626.31;;;31.02;40.70
58757;BME280;44527;47.460;19.016;2023-05-25T08:02:41;100626.91;;;29.62;43.57
58757;BME280;44527;47.460;19.016;2023-05-25T08:05:46;100621.41;;;28.53;46.09
58757;BME280;44527;47.460;19.016;2023-05-25T08:08:48;100613.16;;;27.88;48.08
58757;BME280;44527;47.460;19.016;2023-05-25T08:11:52;100616.81;;;27.21;49.15
58757;BME280;44527;47.460;19.016;2023-05-25T08:15:08;100613.75;;;26.76;51.71
58757;BME280;44527;47.460;19.016;2023-05-25T08:18:11;100619.50;;;27.21;50.52
58757;BME280;44527;47.460;19.016;2023-05-25T08:21:13;100617.78;;;27.07;50.68
58757;BME280;44527;47.460;19.016;2023-05-25T08:24:15;100616.00;;;26.37;52.50
58757;BME280;44527;47.460;19.016;2023-05-25T08:27:17;100617.00;;;26.02;53.75
58757;BME280;44527;47.460;19.016;2023-05-25T08:30:20;100624.63;;;25.77;56.34
58757;BME280;44527;47.460;19.016;2023-05-25T08:33:22;100620.66;;;26.22;52.86
58757;BME280;44527;47.460;19.016;2023-05-25T08:36:27;100618.44;;;25.55;56.26
58757;BME280;44527;47.460;19.016;2023-05-25T08:39:29;100620.72;;;25.00;58.61
58757;BME280;44527;47.460;19.016;2023-05-25T08:42:33;100620.31;;;24.82;56.37
58757;BME280;44527;47.460;19.016;2023-05-25T08:45:35;100612.75;;;24.70;58.38
58757;BME280;44527;47.460;19.016;2023-05-25T08:48:44;100621.94;;;24.97;56.53
58757;BME280;44527;47.460;19.016;2023-05-25T08:51:51;100631.00;;;25.69;53.36
58757;BME280;44527;47.460;19.016;2023-05-25T08:54:54;100622.12;;;26.25;52.67
58757;BME280;44527;47.460;19.016;2023-05-25T08:57:59;100624.31;;;25.65;54.69
58757;BME280;44527;47.460;19.016;2023-05-25T09:01:03;100631.53;;;26.07;53.67
58757;BME280;44527;47.460;19.016;2023-05-25T09:04:08;100625.44;;;25.77;53.92
58757;BME280;44527;47.460;19.016;2023-05-25T09:07:15;100622.22;;;26.10;53.27
58757;BME280;44527;47.460;19.016;2023-05-25T09:10:17;100621.34;;;26.31;51.60
58757;BME280;44527;47.460;19.016;2023-05-25T09:13:20;100619.06;;;26.63;50.97
58757;BME280;44527;47.460;19.016;2023-05-25T09:16:24;100615.66;;;26.95;49.23
58757;BME280;44527;47.460;19.016;2023-05-25T09:19:27;100614.81;;;26.88;47.78
58757;BME280;44527;47.460;19.016;2023-05-25T09:22:29;100614.56;;;27.24;47.59
58757;BME280;44527;47.460;19.016;2023-05-25T09:25:31;100616.63;;;27.22;49.13
58757;BME280;44527;47.460;19.016;2023-05-25T09:28:33;100616.91;;;26.93;46.72
58757;BME280;44527;47.460;19.016;2023-05-25T09:31:36;100611.44;;;26.66;46.78
58757;BME280;44527;47.460;19.016;2023-05-25T09:34:41;100612.22;;;26.60;47.91
58757;BME280;44527;47.460;19.016;2023-05-25T09:37:43;100618.50;;;25.83;49.00
58757;BME280;44527;47.460;19.016;2023-05-25T09:40:46;100626.63;;;25.68;50.84
58757;BME280;44527;47.460;19.016;2023-05-25T09:43:49;100624.84;;;25.54;51.26
58757;BME280;44527;47.460;19.016;2023-05-25T09:46:55;100624.63;;;25.34;52.32
58757;BME280;44527;47.460;19.016;2023-05-25T09:49:57;100631.66;;;25.13;55.03
58757;BME280;44527;47.460;19.016;2023-05-25T09:53:01;100628.84;;;25.07;51.05
58757;BME280;44527;47.460;19.016;2023-05-25T09:56:04;100626.09;;;25.00;53.85
58757;BME280;44527;47.460;19.016;2023-05-25T09:59:06;100629.12;;;25.48;50.51
58757;BME280;44527;47.460;19.016;2023-05-25T10:02:08;100628.34;;;25.76;49.36
58757;BME280;44527;47.460;19.016;2023-05-25T10:05:11;100632.91;;;25.75;50.70
58757;BME280;44527;47.460;19.016;2023-05-25T10:08:13;100628.53;;;25.31;54.47
58757;BME280;44527;47.460;19.016;2023-05-25T10:11:20;100623.16;;;25.31;51.97
58757;BME280;44527;47.460;19.016;2023-05-25T10:14:26;100624.69;;;25.40;52.88
58757;BME280;44527;47.460;19.016;2023-05-25T10:17:31;100621.91;;;25.49;53.44
58757;BME280;44527;47.460;19.016;2023-05-25T10:20:35;100630.22;;;25.32;54.76
58757;BME280;44527;47.460;19.016;2023-05-25T10:23:41;100617.69;;;25.39;56.21
58757;BME280;44527;47.460;19.016;2023-05-25T10:26:48;100615.19;;;25.59;56.17
58757;BME280;44527;47.460;19.016;2023-05-25T10:29:57;100611.34;;;25.90;52.88
58757;BME280;44527;47.460;19.016;2023-05-25T10:33:00;100617.84;;;26.02;53.25
58757;BME280;44527;47.460;19.016;2023-05-25T10:36:03;100620.03;;;25.71;53.36
58757;BME280;44527;47.460;19.016;2023-05-25T10:39:12;100606.81;;;25.26;54.27
58757;BME280;44527;47.460;19.016;2023-05-25T10:42:16;100613.78;;;25.42;53.82
58757;BME280;44527;47.460;19.016;2023-05-25T10:45:19;100611.91;;;25.21;53.20
58757;BME280;44527;47.460;19.016;2023-05-25T10:48:22;100609.34;;;25.34;55.87
58757;BME280;44527;47.460;19.016;2023-05-25T10:51:35;100608.72;;;25.75;52.61
58757;BME280;44527;47.460;19.016;2023-05-25T10:54:38;100596.72;;;25.99;50.46
58757;BME280;44527;47.460;19.016;2023-05-25T10:57:42;100594.28;;;26.11;51.27
58757;BME280;44527;47.460;19.016;2023-05-25T11:04:16;100597.66;;;25.20;54.31
58757;BME280;44527;47.460;19.016;2023-05-25T11:07:19;100595.91;;;25.56;53.86
58757;BME280;44527;47.460;19.016;2023-05-25T11:10:41;100591.47;;;25.91;52.24
58757;BME280;44527;47.460;19.016;2023-05-25T11:13:47;100595.59;;;26.15;53.08
58757;BME280;44527;47.460;19.016;2023-05-25T11:20:04;100591.16;;;25.79;52.23
58757;BME280;44527;47.460;19.016;2023-05-25T11:23:23;100596.13;;;25.33;56.22
58757;BME280;44527;47.460;19.016;2023-05-25T11:26:27;100590.25;;;25.44;54.24
58757;BME280;44527;47.460;19.016;2023-05-25T11:29:29;100583.56;;;25.18;54.91
58757;BME280;44527;47.460;19.016;2023-05-25T11:32:32;100588.19;;;25.46;54.35
58757;BME280;44527;47.460;19.016;2023-05-25T11:35:34;100583.13;;;25.58;54.11
58757;BME280;44527;47.460;19.016;2023-05-25T11:38:53;100574.75;;;25.96;53.09
58757;BME280;44527;47.460;19.016;2023-05-25T11:42:12;100576.34;;;26.18;52.61
58757;BME280;44527;47.460;19.016;2023-05-25T11:45:16;100572.75;;;26.04;51.79
58757;BME280;44527;47.460;19.016;2023-05-25T11:48:18;100572.34;;;26.07;50.84
58757;BME280;44527;47.460;19.016;2023-05-25T11:51:24;100561.44;;;26.16;52.17
58757;BME280;44527;47.460;19.016;2023-05-25T11:54:27;100552.84;;;26.33;51.44
58757;BME280;44527;47.460;19.016;2023-05-25T11:57:30;100549.47;;;26.59;52.78
58757;BME280;44527;47.460;19.016;2023-05-25T12:00:32;100544.22;;;26.45;48.07
58757;BME280;44527;47.460;19.016;2023-05-25T12:03:34;100536.38;;;26.50;50.15
58757;BME280;44527;47.460;19.016;2023-05-25T12:06:37;100530.75;;;27.06;50.23
58757;BME280;44527;47.460;19.016;2023-05-25T12:09:39;100533.88;;;27.10;47.49
58757;BME280;44527;47.460;19.016;2023-05-25T12:12:46;100531.69;;;26.72;49.05
58757;BME280;44527;47.460;19.016;2023-05-25T12:15:48;100531.78;;;26.44;49.53
58757;BME280;44527;47.460;19.016;2023-05-25T12:18:51;100528.34;;;26.15;51.02
58757;BME280;44527;47.460;19.016;2023-05-25T12:21:56;100525.09;;;25.92;51.77
58757;BME280;44527;47.460;19.016;2023-05-25T12:24:58;100533.62;;;25.74;54.63
58757;BME280;44527;47.460;19.016;2023-05-25T12:28:11;100522.81;;;26.23;51.08
58757;BME280;44527;47.460;19.016;2023-05-25T12:31:20;100520.84;;;26.10;51.21
58757;BME280;44527;47.460;19.016;2023-05-25T12:34:25;100527.38;;;26.29;49.67
58757;BME280;44527;47.460;19.016;2023-05-25T12:37:27;100531.34;;;26.40;49.13
58757;BME280;44527;47.460;19.016;2023-05-25T12:40:30;100528.78;;;26.60;49.18
58757;BME280;44527;47.460;19.016;2023-05-25T12:43:38;100524.00;;;26.62;49.74
58757;BME280;44527;47.460;19.016;2023-05-25T12:46:41;100520.31;;;26.28;54.10
58757;BME280;44527;47.460;19.016;2023-05-25T12:49:43;100524.16;;;26.06;53.41
58757;BME280;44527;47.460;19.016;2023-05-25T12:52:46;100527.66;;;25.78;53.28
58757;BME280;44527;47.460;19.016;2023-05-25T12:55:48;100519.84;;;25.83;53.94
58757;BME280;44527;47.460;19.016;2023-05-25T12:58:51;100516.97;;;25.57;52.76
58757;BME280;44527;47.460;19.016;2023-05-25T13:01:53;100515.78;;;25.38;54.50
58757;BME280;44527;47.460;19.016;2023-05-25T13:04:55;100510.28;;;25.25;55.00
58757;BME280;44527;47.460;19.016;2023-05-25T13:07:58;100512.78;;;25.26;54.22
58757;BME280;44527;47.460;19.016;2023-05-25T13:11:00;100506.13;;;25.22;54.91
58757;BME280;44527;47.460;19.016;2023-05-25T13:14:04;100493.38;;;25.31;55.42
58757;BME280;44527;47.460;19.016;2023-05-25T13:17:06;100497.94;;;25.58;54.98
58757;BME280;44527;47.460;19.016;2023-05-25T13:20:12;100482.69;;;25.94;50.71
58757;BME280;44527;47.460;19.016;2023-05-25T13:23:15;100494.56;;;26.06;50.99
58757;BME280;44527;47.460;19.016;2023-05-25T13:26:17;100490.16;;;25.98;51.16
58757;BME280;44527;47.460;19.016;2023-05-25T13:29:20;100482.84;;;25.57;52.60
58757;BME280;44527;47.460;19.016;2023-05-25T13:32:24;100477.22;;;25.52;54.84
58757;BME280;44527;47.460;19.016;2023-05-25T13:35:27;100480.34;;;25.28;54.79
58757;BME280;44527;47.460;19.016;2023-05-25T13:38:43;100477.34;;;25.16;55.87
58757;BME280;44527;47.460;19.016;2023-05-25T13:41:46;100471.66;;;25.26;53.02
58757;BME280;44527;47.460;19.016;2023-05-25T13:44:49;100465.34;;;25.68;51.37
58757;BME280;44527;47.460;19.016;2023-05-25T13:47:51;100459.50;;;25.93;50.62
58757;BME280;44527;47.460;19.016;2023-05-25T13:50:53;100457.47;;;25.95;51.85
58757;BME280;44527;47.460;19.016;2023-05-25T13:53:56;100447.53;;;25.95;52.13
58757;BME280;44527;47.460;19.016;2023-05-25T13:56:58;100449.94;;;25.83;52.92
58757;BME280;44527;47.460;19.016;2023-05-25T14:00:00;100448.38;;;25.67;52.90
58757;BME280;44527;47.460;19.016;2023-05-25T14:03:02;100438.97;;;25.22;54.63
58757;BME280;44527;47.460;19.016;2023-05-25T14:06:05;100441.78;;;25.35;54.91
58757;BME280;44527;47.460;19.016;2023-05-25T14:09:07;100434.03;;;25.54;53.25
58757;BME280;44527;47.460;19.016;2023-05-25T14:12:10;100440.81;;;25.50;53.47
58757;BME280;44527;47.460;19.016;2023-05-25T14:15:15;100437.53;;;25.48;52.96
58757;BME280;44527;47.460;19.016;2023-05-25T14:18:17;100432.44;;;25.59;50.90
58757;BME280;44527;47.460;19.016;2023-05-25T14:21:19;100429.41;;;25.76;52.01
58757;BME280;44527;47.460;19.016;2023-05-25T14:24:22;100434.88;;;25.89;52.48
58757;BME280;44527;47.460;19.016;2023-05-25T14:27:24;100431.78;;;25.92;51.65
58757;BME280;44527;47.460;19.016;2023-05-25T14:30:26;100426.84;;;25.96;50.08
58757;BME280;44527;47.460;19.016;2023-05-25T14:33:28;100421.47;;;25.96;50.78
58757;BME280;44527;47.460;19.016;2023-05-25T14:36:31;100418.16;;;25.94;52.38
58757;BME280;44527;47.460;19.016;2023-05-25T14:39:33;100412.00;;;26.00;51.28
58757;BME280;44527;47.460;19.016;2023-05-25T14:42:37;100413.91;;;26.19;51.34
58757;BME280;44527;47.460;19.016;2023-05-25T14:45:39;100417.47;;;26.26;50.27
58757;BME280;44527;47.460;19.016;2023-05-25T14:48:41;100414.56;;;26.28;50.74
58757;BME280;44527;47.460;19.016;2023-05-25T14:51:43;100415.38;;;26.22;52.60
58757;BME280;44527;47.460;19.016;2023-05-25T14:54:46;100420.91;;;26.07;52.55
58757;BME280;44527;47.460;19.016;2023-05-25T14:57:48;100416.94;;;25.96;51.15
58757;BME280;44527;47.460;19.016;2023-05-25T15:00:50;100411.78;;;25.66;51.08
58757;BME280;44527;47.460;19.016;2023-05-25T15:03:52;100409.25;;;25.58;50.71
58757;BME280;44527;47.460;19.016;2023-05-25T15:06:55;100401.47;;;25.35;53.48
58757;BME280;44527;47.460;19.016;2023-05-25T15:09:57;100402.25;;;25.29;51.50
58757;BME280;44527;47.460;19.016;2023-05-25T15:12:59;100395.41;;;25.27;52.22
58757;BME280;44527;47.460;19.016;2023-05-25T15:16:01;100403.37;;;25.13;53.65
58757;BME280;44527;47.460;19.016;2023-05-25T15:19:03;100404.44;;;25.19;55.32
58757;BME280;44527;47.460;19.016;2023-05-25T15:22:06;100406.72;;;25.22;53.70
58757;BME280;44527;47.460;19.016;2023-05-25T15:25:08;100402.53;;;25.13;53.48
58757;BME280;44527;47.460;19.016;2023-05-25T15:28:10;100404.72;;;25.03;54.02
58757;BME280;44527;47.460;19.016;2023-05-25T15:31:12;100409.28;;;25.09;55.63
58757;BME280;44527;47.460;19.016;2023-05-25T15:34:14;100404.31;;;25.06;54.77
58757;BME280;44527;47.460;19.016;2023-05-25T15:37:17;100402.47;;;25.06;55.58
58757;BME280;44527;47.460;19.016;2023-05-25T15:40:19;100403.37;;;25.13;52.78
58757;BME280;44527;47.460;19.016;2023-05-25T15:43:21;100404.72;;;25.03;54.21
58757;BME280;44527;47.460;19.016;2023-05-25T15:46:23;100395.00;;;25.02;54.09
58757;BME280;44527;47.460;19.016;2023-05-25T15:49:26;100400.31;;;24.95;54.79
58757;BME280;44527;47.460;19.016;2023-05-25T15:52:28;100400.94;;;24.97;54.55
58757;BME280;44527;47.460;19.016;2023-05-25T15:55:30;100392.28;;;24.95;54.31